Time;durP1;ratioP1;P1;durP2;ratioP2;P2;SDS_P1;SDS_P2;PMS_P1;PMS_P2;Temp;Humidity;BMP_temperature;BMP_pressure;BME280_temperature;BME280_humidity;BME280_pressure;Samples;Min_cycle;Max_cycle;Signal;HPM_P1;HPM_P2
2022/05/18 00:00:30;;;;;;;5.38;3.03;;;486.40;2380.80;;;;;;5029409;28;20035;-56
2022/05/18 00:02:58;;;;;;;6.72;3.22;;;486.50;2380.80;;;;;;5022585;28;20025;-57
2022/05/18 00:05:24;;;;;;;7.57;3.17;;;486.40;2380.80;;;;;;5021940;28;20044;-56
2022/05/18 00:07:50;;;;;;;4.78;3.00;;;461.70;2380.80;;;;;;5023423;28;20075;-58
2022/05/18 00:10:17;;;;;;;7.38;3.47;;;486.40;2380.80;;;;;;5022281;28;20568;-56
2022/05/18 00:12:49;;;;;;;5.80;3.42;;;486.40;2380.80;;;;;;5022194;28;20021;-56
2022/05/18 00:15:18;;;;;;;5.07;2.85;;;461.70;2380.80;;;;;;5019730;28;20021;-57
2022/05/18 00:17:44;;;;;;;6.57;4.05;;;461.70;2380.80;;;;;;5021964;28;20367;-57
2022/05/18 00:20:11;;;;;;;5.90;3.53;;;461.70;2380.80;;;;;;5010606;28;20132;-57
2022/05/18 00:22:49;;;;;;;5.18;3.33;;;461.70;2380.80;;;;;;5020481;28;20018;-57
2022/05/18 00:25:16;;;;;;;5.93;3.33;;;461.60;2380.80;;;;;;5018780;28;20053;-56
2022/05/18 00:27:42;;;;;;;6.80;3.67;;;461.50;2380.80;;;;;;5021484;28;20164;-56
2022/05/18 00:30:09;;;;;;;5.47;3.22;;;461.50;2380.80;;;;;;5023089;28;20108;-55
2022/05/18 00:32:35;;;;;;;5.57;3.65;;;461.40;2380.80;;;;;;5022521;28;20030;-56
2022/05/18 00:35:01;;;;;;;6.28;3.33;;;461.70;2380.80;;;;;;5018513;28;20392;-57
2022/05/18 00:37:27;;;;;;;5.07;3.22;;;461.40;2380.80;;;;;;5020080;28;20028;-56
2022/05/18 00:39:52;;;;;;;6.57;4.20;;;461.40;2380.80;;;;;;5022906;28;20030;-56
2022/05/18 00:42:21;;;;;;;6.45;3.70;;;461.40;2380.80;;;;;;5026104;28;20112;-56
2022/05/18 00:44:47;;;;;;;7.93;3.78;;;461.40;2380.80;;;;;;5031961;28;20499;-56
2022/05/18 00:47:13;;;;;;;6.05;3.08;;;461.30;2380.80;;;;;;5032632;28;20060;-56
2022/05/18 00:49:40;;;;;;;7.13;3.75;;;461.40;2380.80;;;;;;5031979;28;20065;-56
2022/05/18 00:52:07;;;;;;;5.68;3.80;;;461.40;2380.80;;;;;;5032245;28;20278;-56
2022/05/18 00:54:35;;;;;;;5.20;3.00;;;461.40;2380.80;;;;;;5031942;28;20052;-56
2022/05/18 00:57:13;;;;;;;6.32;3.60;;;461.40;2380.80;;;;;;5031827;28;20103;-56
2022/05/18 00:59:45;;;;;;;5.18;3.30;;;461.40;2380.80;;;;;;5031930;28;20471;-56
2022/05/18 01:02:11;;;;;;;7.63;3.85;;;461.30;2380.80;;;;;;5032043;28;20021;-56
2022/05/18 01:04:40;;;;;;;7.65;3.90;;;461.30;2380.80;;;;;;5031786;28;20026;-57
2022/05/18 01:07:10;;;;;;;7.47;4.03;;;461.10;2380.80;;;;;;5031894;28;20116;-56
2022/05/18 01:09:40;;;;;;;6.60;3.92;;;461.10;2380.80;;;;;;5031782;28;20484;-56
2022/05/18 01:12:08;;;;;;;7.07;3.50;;;461.10;2380.80;;;;;;5031701;28;20480;-56
2022/05/18 01:14:44;;;;;;;5.97;3.85;;;461.10;2380.80;;;;;;5031645;28;20037;-56
2022/05/18 01:17:15;;;;;;;5.40;3.30;;;461.10;2380.80;;;;;;5031627;28;20017;-56
2022/05/18 01:19:44;;;;;;;7.00;4.10;;;461.10;2380.80;;;;;;5031801;28;20388;-56
2022/05/18 01:22:47;;;;;;;7.63;5.47;;;461.10;2380.80;;;;;;5031421;28;20117;-56
2022/05/18 01:25:31;;;;;;;7.00;4.30;;;461.10;2380.80;;;;;;5031693;28;20050;-56
2022/05/18 01:27:57;;;;;;;;;;;461.20;2380.80;;;;;;5031864;28;20026;-57
2022/05/18 01:30:23;;;;;;;4.65;3.20;;;461.30;2380.80;;;;;;5031463;28;19913;-56
2022/05/18 01:32:51;;;;;;;5.97;3.33;;;461.20;2380.80;;;;;;5031468;28;20076;-56
2022/05/18 01:35:21;;;;;;;5.50;3.78;;;461.30;2380.80;;;;;;5031093;28;20475;-56
2022/05/18 01:37:47;;;;;;;7.30;3.53;;;461.40;2380.80;;;;;;5030999;28;20148;-57
2022/05/18 01:40:28;;;;;;;6.72;3.95;;;461.40;2380.80;;;;;;5031445;28;20029;-57
2022/05/18 01:43:01;;;;;;;6.57;3.63;;;461.40;2380.80;;;;;;5031279;28;20025;-57
2022/05/18 01:45:27;;;;;;;7.07;3.90;;;461.40;2380.80;;;;;;5031125;28;20021;-56
2022/05/18 01:47:53;;;;;;;5.90;3.67;;;461.40;2380.80;;;;;;5031165;28;20527;-56
2022/05/18 01:50:28;;;;;;;5.75;3.58;;;461.50;2380.80;;;;;;5030882;28;20041;-56
2022/05/18 01:52:54;;;;;;;5.75;3.60;;;461.40;2380.80;;;;;;5030926;28;20021;-56
2022/05/18 01:55:19;;;;;;;6.25;3.72;;;461.40;2380.80;;;;;;5030935;28;20030;-56
2022/05/18 01:57:45;;;;;;;7.10;3.70;;;461.40;2380.80;;;;;;5030931;28;20033;-56
2022/05/18 02:00:12;;;;;;;6.13;3.58;;;461.40;2380.80;;;;;;5031042;28;20048;-56
2022/05/18 02:02:38;;;;;;;7.18;4.47;;;461.40;2380.80;;;;;;5030941;28;20100;-57
2022/05/18 02:05:05;;;;;;;7.35;4.10;;;461.30;2380.80;;;;;;5030962;28;20032;-56
2022/05/18 02:07:30;;;;;;;8.63;4.20;;;461.20;2380.80;;;;;;5030579;28;20025;-56
2022/05/18 02:09:56;;;;;;;6.78;4.50;;;461.20;2380.80;;;;;;5030509;28;20377;-56
2022/05/18 02:12:22;;;;;;;7.07;4.32;;;461.20;2380.80;;;;;;5030628;28;20165;-56
2022/05/18 02:14:48;;;;;;;6.20;3.45;;;461.20;2380.80;;;;;;5030786;28;20037;-56
2022/05/18 02:17:14;;;;;;;6.00;4.30;;;461.20;2380.80;;;;;;5030911;28;20032;-56
2022/05/18 02:19:39;;;;;;;8.57;3.75;;;461.20;2380.80;;;;;;5030486;28;20033;-57
2022/05/18 02:22:05;;;;;;;6.05;3.97;;;461.20;2380.80;;;;;;5030671;28;20026;-56
2022/05/18 02:24:31;;;;;;;8.45;4.57;;;461.20;2380.80;;;;;;5029908;28;20105;-57
2022/05/18 02:26:57;;;;;;;8.07;4.65;;;461.20;2380.80;;;;;;5030281;28;20070;-55
2022/05/18 02:29:22;;;;;;;8.20;3.75;;;461.20;2380.80;;;;;;5030180;28;20105;-55
2022/05/18 02:31:48;;;;;;;6.43;4.40;;;461.20;2380.80;;;;;;5030353;28;20423;-54
2022/05/18 02:34:14;;;;;;;7.65;3.92;;;461.20;2380.80;;;;;;5030483;28;20024;-54
2022/05/18 02:36:42;;;;;;;5.38;3.70;;;461.20;2380.80;;;;;;5030109;28;20079;-54
2022/05/18 02:39:08;;;;;;;6.00;3.53;;;461.20;2380.80;;;;;;5029992;28;20037;-55
2022/05/18 02:41:34;;;;;;;5.82;3.35;;;461.30;2380.80;;;;;;5030253;28;20561;-54
2022/05/18 02:44:00;;;;;;;4.88;3.03;;;461.20;2380.80;;;;;;5029308;28;20068;-54
2022/05/18 02:46:26;;;;;;;5.38;3.50;;;461.20;2380.80;;;;;;5030239;28;20097;-57
2022/05/18 02:48:52;;;;;;;6.80;3.95;;;461.20;2380.80;;;;;;5012328;28;20076;-55
2022/05/18 02:51:19;;;;;;;5.72;4.35;;;461.20;2380.80;;;;;;5030023;28;20471;-55
2022/05/18 02:53:45;;;;;;;6.00;3.80;;;461.20;2380.80;;;;;;5030111;28;20029;-55
2022/05/18 02:56:15;;;;;;;4.70;3.15;;;461.20;2380.80;;;;;;5030014;28;20387;-55
2022/05/18 02:58:48;;;;;;;5.07;3.17;;;461.20;2380.80;;;;;;5029933;28;20017;-56
2022/05/18 03:01:18;;;;;;;;;;;461.20;2380.80;;;;;;5030447;28;20375;-55
2022/05/18 03:03:45;;;;;;;5.93;3.75;;;461.30;2380.80;;;;;;5030261;28;20422;-55
2022/05/18 03:06:13;;;;;;;5.45;3.63;;;461.20;2380.80;;;;;;5029963;28;20136;-54
2022/05/18 03:08:41;;;;;;;5.82;3.60;;;461.20;2380.80;;;;;;5029541;28;20029;-55
2022/05/18 03:11:07;;;;;;;5.82;3.53;;;461.20;2380.80;;;;;;5029889;28;20691;-55
2022/05/18 03:13:33;;;;;;;5.32;3.75;;;461.20;2380.80;;;;;;5029858;28;20032;-55
2022/05/18 03:16:00;;;;;;;5.03;3.30;;;461.10;2380.80;;;;;;5029690;28;20030;-55
2022/05/18 03:18:26;;;;;;;5.28;3.20;;;461.10;2380.80;;;;;;5030060;28;20068;-54
2022/05/18 03:23:37;;;;;;;5.15;3.50;;;461.10;2380.80;;;;;;5029908;28;20095;-55
2022/05/18 03:26:08;;;;;;;5.57;3.33;;;461.10;2380.80;;;;;;5029562;28;20461;-55
2022/05/18 03:28:35;;;;;;;4.82;3.20;;;461.10;2380.80;;;;;;5029941;28;20033;-55
2022/05/18 03:31:01;;;;;;;7.13;4.47;;;461.10;2380.80;;;;;;5011378;28;20128;-55
2022/05/18 03:33:27;;;;;;;6.80;3.80;;;461.10;2380.80;;;;;;5029792;28;20095;-55
2022/05/18 03:35:53;;;;;;;4.78;3.38;;;461.10;2380.80;;;;;;5029825;28;20032;-54
2022/05/18 03:38:20;;;;;;;5.35;3.60;;;461.10;2380.80;;;;;;5029403;28;20022;-55
2022/05/18 03:40:46;;;;;;;4.85;3.72;;;461.00;2380.80;;;;;;5029585;28;20456;-55
2022/05/18 03:43:13;;;;;;;5.57;3.63;;;461.10;2380.80;;;;;;5029696;28;20521;-54
2022/05/18 03:45:39;;;;;;;5.43;3.50;;;461.10;2380.80;;;;;;5029699;28;20037;-55
2022/05/18 03:48:06;;;;;;;8.13;4.05;;;461.00;2380.80;;;;;;5029745;28;20033;-54
2022/05/18 03:50:33;;;;;;;6.40;4.03;;;461.10;2380.80;;;;;;5029523;28;20094;-55
2022/05/18 03:53:00;;;;;;;6.45;3.63;;;461.00;2380.80;;;;;;5029376;28;20321;-55
2022/05/18 03:55:26;;;;;;;5.80;4.00;;;461.00;2380.80;;;;;;5030573;28;20112;-54
2022/05/18 03:57:52;;;;;;;6.18;4.07;;;461.00;2380.80;;;;;;5033254;28;20078;-55
2022/05/18 04:00:19;;;;;;;5.90;4.13;;;460.80;2380.80;;;;;;5033057;28;20021;-54
2022/05/18 04:02:47;;;;;;;6.10;3.70;;;460.80;2380.80;;;;;;5033337;28;20054;-54
2022/05/18 04:05:14;;;;;;;5.50;3.50;;;460.90;2380.80;;;;;;5033357;28;20083;-55
2022/05/18 04:07:40;;;;;;;8.05;3.92;;;460.80;2380.80;;;;;;5032827;28;20029;-55
2022/05/18 04:10:07;;;;;;;5.53;3.63;;;460.80;2380.80;;;;;;5032696;28;20041;-55
2022/05/18 04:12:34;;;;;;;7.13;3.95;;;460.90;2380.80;;;;;;5032813;28;20032;-55
2022/05/18 04:15:00;;;;;;;6.45;4.18;;;460.80;2380.80;;;;;;5032551;28;20037;-55
2022/05/18 04:17:26;;;;;;;6.40;4.45;;;436.10;2355.20;;;;;;5032534;28;20018;-54
2022/05/18 04:19:53;;;;;;;8.18;4.00;;;436.00;2355.20;;;;;;5032802;28;20476;-55
2022/05/18 04:22:19;;;;;;;6.82;3.85;;;435.90;2355.20;;;;;;5032506;28;20025;-54
2022/05/18 04:24:45;;;;;;;6.72;3.70;;;435.80;2201.60;;;;;;5032420;28;20057;-55
2022/05/18 04:27:11;;;;;;;7.57;4.53;;;435.60;2355.20;;;;;;5032341;28;20034;-55
2022/05/18 04:29:37;;;;;;;5.38;4.03;;;435.60;2355.20;;;;;;5032206;28;20041;-55
2022/05/18 04:32:05;;;;;;;4.63;3.72;;;435.60;2355.20;;;;;;5015765;28;20030;-54
2022/05/18 04:34:32;;;;;;;6.47;4.35;;;435.50;2355.20;;;;;;5012462;28;20026;-55
2022/05/18 04:36:57;;;;;;;6.70;4.50;;;435.60;2355.20;;;;;;5012510;28;20435;-55
2022/05/18 04:39:23;;;;;;;7.78;4.75;;;435.50;2355.20;;;;;;5012450;28;20025;-56
2022/05/18 04:41:49;;;;;;;7.13;4.57;;;435.70;2355.20;;;;;;5012446;28;20072;-56
2022/05/18 04:44:15;;;;;;;6.78;4.50;;;435.70;2355.20;;;;;;5012840;28;20101;-55
2022/05/18 04:46:41;;;;;;;6.65;4.10;;;435.90;2355.20;;;;;;5012301;28;20025;-55
2022/05/18 04:49:09;;;;;;;8.20;4.47;;;435.80;2355.20;;;;;;5012287;28;20034;-55
2022/05/18 04:51:35;;;;;;;6.90;4.32;;;435.90;2355.20;;;;;;5012164;28;20022;-55
2022/05/18 04:54:01;;;;;;;7.50;4.68;;;460.80;2380.80;;;;;;5011752;28;20038;-55
2022/05/18 04:56:26;;;;;;;6.28;3.85;;;460.90;2380.80;;;;;;5012389;28;20029;-56
2022/05/18 04:58:53;;;;;;;6.60;3.78;;;461.10;2380.80;;;;;;5011836;28;20408;-55
2022/05/18 05:01:19;;;;;;;7.45;4.63;;;461.00;2380.80;;;;;;5012075;28;20042;-55
2022/05/18 05:03:45;;;;;;;7.63;5.13;;;436.10;2355.20;;;;;;5012188;28;20022;-56
2022/05/18 05:06:11;;;;;;;8.15;4.82;;;436.10;2355.20;;;;;;5011920;28;20049;-56
2022/05/18 05:08:38;;;;;;;6.97;5.22;;;435.90;2355.20;;;;;;5011040;28;20085;-56
2022/05/18 05:11:06;;;;;;;7.10;4.43;;;436.00;2355.20;;;;;;5011806;28;20088;-56
2022/05/18 05:13:33;;;;;;;5.20;3.95;;;435.90;2355.20;;;;;;5011652;28;20476;-55
2022/05/18 05:16:04;;;;;;;5.72;3.50;;;435.90;2355.20;;;;;;5011808;28;20033;-55
2022/05/18 05:18:30;;;;;;;5.53;3.78;;;435.60;2355.20;;;;;;5011709;28;20049;-55
2022/05/18 05:20:56;;;;;;;6.82;3.00;;;435.40;2355.20;;;;;;5011924;28;20445;-54
2022/05/18 05:23:24;;;;;;;7.30;3.58;;;435.40;2355.20;;;;;;5011346;28;20079;-54
2022/05/18 05:25:50;;;;;;;5.43;3.95;;;435.50;2355.20;;;;;;5011204;28;20042;-57
2022/05/18 05:28:16;;;;;;;6.78;3.88;;;435.30;2355.20;;;;;;5011538;28;20022;-55
2022/05/18 05:30:42;;;;;;;5.60;4.30;;;435.50;2355.20;;;;;;5011286;28;20527;-55
2022/05/18 05:33:07;;;;;;;5.63;3.88;;;435.40;2355.20;;;;;;5011457;28;20098;-55
2022/05/18 05:35:33;;;;;;;5.45;3.35;;;435.40;2355.20;;;;;;5011586;28;20436;-64
2022/05/18 05:37:59;;;;;;;6.45;3.85;;;435.50;2355.20;;;;;;5011318;28;20052;-64
2022/05/18 05:40:25;;;;;;;9.23;3.50;;;435.60;2355.20;;;;;;5011116;28;20461;-64
2022/05/18 05:42:51;;;;;;;5.35;3.22;;;435.50;2355.20;;;;;;5011116;28;20073;-65
2022/05/18 05:45:16;;;;;;;7.00;3.63;;;435.60;2355.20;;;;;;5011379;28;20029;-64
2022/05/18 05:47:42;;;;;;;7.85;3.35;;;435.50;2355.20;;;;;;5011330;28;20018;-64
2022/05/18 05:50:09;;;;;;;4.68;3.15;;;435.30;2355.20;;;;;;5011066;28;20038;-65
2022/05/18 05:52:34;;;;;;;5.90;3.38;;;435.50;2355.20;;;;;;5011161;28;20022;-64
2022/05/18 05:55:00;;;;;;;5.47;3.25;;;435.60;2355.20;;;;;;5010708;28;20049;-64
2022/05/18 05:57:26;;;;;;;6.10;3.97;;;435.60;2355.20;;;;;;5011138;28;20080;-64
2022/05/18 05:59:52;;;;;;;6.57;3.60;;;435.70;2355.20;;;;;;5011042;28;20021;-65
2022/05/18 06:02:19;;;;;;;8.77;3.83;;;435.50;2355.20;;;;;;5010909;28;20109;-64
2022/05/18 06:04:46;;;;;;;6.75;3.60;;;435.60;2355.20;;;;;;5010962;28;20532;-64
2022/05/18 06:07:13;;;;;;;5.57;3.50;;;435.70;2355.20;;;;;;5011115;28;20052;-64
2022/05/18 06:09:39;;;;;;;6.13;2.95;;;435.60;2355.20;;;;;;5010661;28;20084;-64
2022/05/18 06:12:06;;;;;;;5.13;3.67;;;435.60;2355.20;;;;;;5010825;28;20567;-64
2022/05/18 06:14:32;;;;;;;5.95;3.47;;;435.80;2355.20;;;;;;5010819;28;20045;-65
2022/05/18 06:16:57;;;;;;;4.93;3.38;;;436.00;2355.20;;;;;;5010729;28;20033;-65
2022/05/18 06:19:24;;;;;;;5.75;3.53;;;436.00;2355.20;;;;;;5010034;28;20026;-64
2022/05/18 06:21:50;;;;;;;6.05;3.63;;;436.10;2355.20;;;;;;5010587;28;20105;-65
2022/05/18 06:24:16;;;;;;;5.10;3.05;;;460.80;2380.80;;;;;;5010396;28;20042;-65
2022/05/18 06:26:43;;;;;;;5.57;3.10;;;460.80;2380.80;;;;;;5010639;28;20029;-65
2022/05/18 06:29:08;;;;;;;5.50;3.40;;;460.90;2380.80;;;;;;5010531;28;20387;-65
2022/05/18 06:31:34;;;;;;;5.85;3.83;;;461.10;2380.80;;;;;;5010593;28;20025;-65
2022/05/18 06:34:00;;;;;;;5.35;3.55;;;461.20;2380.80;;;;;;5010322;28;20022;-64
2022/05/18 06:36:26;;;;;;;5.13;3.55;;;461.10;2380.80;;;;;;5010577;28;20033;-65
2022/05/18 06:38:52;;;;;;;3.88;2.85;;;461.30;2380.80;;;;;;5010099;28;20506;-66
2022/05/18 06:41:23;;;;;;;6.05;3.70;;;461.60;2380.80;;;;;;5010276;28;20177;-66
2022/05/18 06:44:02;;;;;;;4.30;2.97;;;461.60;2380.80;;;;;;4992582;28;20022;-65
2022/05/18 06:46:31;;;;;;;5.25;3.50;;;461.60;2380.80;;;;;;5010240;28;20034;-66
2022/05/18 06:48:57;;;;;;;6.45;3.05;;;461.60;2380.80;;;;;;5010271;28;20052;-64
2022/05/18 06:51:29;;;;;;;4.20;3.08;;;461.70;2380.80;;;;;;5010483;28;20068;-65
2022/05/18 06:53:56;;;;;;;6.00;3.17;;;486.70;2380.80;;;;;;5010201;28;20040;-65
2022/05/18 06:56:28;;;;;;;5.70;3.25;;;487.20;2380.80;;;;;;5010054;28;20022;-64
2022/05/18 06:58:54;;;;;;;3.45;2.33;;;487.10;2380.80;;;;;;5010167;28;20022;-65
2022/05/18 07:01:20;;;;;;;4.93;3.13;;;487.20;2380.80;;;;;;5010027;28;20030;-65
2022/05/18 07:03:47;;;;;;;4.15;2.70;;;512.10;2380.80;;;;;;5010309;28;20030;-66
2022/05/18 07:06:14;;;;;;;4.47;2.80;;;512.70;2380.80;;;;;;5010356;28;20034;-65
2022/05/18 07:08:41;;;;;;;5.72;2.88;;;512.80;2380.80;;;;;;5009859;28;20026;-65
2022/05/18 07:11:07;;;;;;;4.85;3.03;;;512.90;2380.80;;;;;;5010071;28;20030;-66
2022/05/18 07:13:33;;;;;;;6.65;3.20;;;512.80;2380.80;;;;;;5010123;28;20554;-65
2022/05/18 07:16:00;;;;;;;4.95;3.20;;;512.80;2380.80;;;;;;5010053;28;20032;-64
2022/05/18 07:18:30;;;;;;;3.92;2.55;;;512.70;2380.80;;;;;;5010154;28;20037;-64
2022/05/18 07:21:02;;;;;;;4.22;2.63;;;512.80;2380.80;;;;;;5010051;28;20022;-64
2022/05/18 07:23:28;;;;;;;3.97;2.60;;;537.70;2406.40;;;;;;5009709;28;20042;-63
2022/05/18 07:25:55;;;;;;;5.18;3.47;;;538.00;2406.40;;;;;;5009830;28;20268;-65
2022/05/18 07:28:23;;;;;;;3.67;2.55;;;512.90;2380.80;;;;;;5010143;28;20052;-64
2022/05/18 07:30:50;;;;;;;3.83;2.20;;;538.00;2406.40;;;;;;5011450;28;20038;-65
2022/05/18 07:33:16;;;;;;;4.80;2.45;;;512.90;2380.80;;;;;;5013810;28;20483;-65
2022/05/18 07:35:42;;;;;;;2.90;2.10;;;512.50;2380.80;;;;;;5013762;28;20038;-64
2022/05/18 07:38:08;;;;;;;7.25;2.47;;;512.40;2278.40;;;;;;5013582;28;20026;-64
2022/05/18 07:40:34;;;;;;;5.55;2.65;;;512.20;2355.20;;;;;;5013728;28;20037;-64
2022/05/18 07:43:01;;;;;;;3.42;2.58;;;487.30;2252.80;;;;;;5013649;28;20038;-64
2022/05/18 07:45:29;;;;;;;3.03;1.73;;;486.80;2201.60;;;;;;5013555;28;20030;-64
2022/05/18 07:47:55;;;;;;;3.63;2.30;;;486.80;2252.80;;;;;;5013565;28;20469;-64
2022/05/18 07:50:23;;;;;;;4.90;2.40;;;486.80;2380.80;;;;;;4994830;28;20074;-64
2022/05/18 07:52:50;;;;;;;4.72;2.35;;;486.80;2380.80;;;;;;5012983;28;20049;-65
2022/05/18 07:55:16;;;;;;;5.50;2.60;;;487.10;2380.80;;;;;;5013672;28;20036;-65
2022/05/18 07:57:42;;;;;;;4.57;2.55;;;487.20;2380.80;;;;;;5013509;28;20026;-64
2022/05/18 08:00:09;;;;;;;2.85;2.05;;;512.00;2329.60;;;;;;5018653;28;20491;-65
2022/05/18 08:02:36;;;;;;;4.05;2.58;;;512.40;2304.00;;;;;;5023400;28;20025;-64
2022/05/18 08:05:02;;;;;;;4.47;2.58;;;512.80;2227.20;;;;;;5015637;28;20034;-65
2022/05/18 08:07:28;;;;;;;4.50;2.72;;;512.90;2099.20;;;;;;5024467;28;20051;-65
2022/05/18 08:15:23;;;;;;;3.25;2.80;;;589.70;1766.40;;;;;;5013389;28;20072;-63
2022/05/18 08:17:49;;;;;;;4.90;3.05;;;691.70;1510.40;;;;;;5012983;28;20018;-65
2022/05/18 08:20:19;;;;;;;4.75;2.13;;;691.20;1484.80;;;;;;5013251;28;20025;-65
2022/05/18 08:22:45;;;;;;;3.00;2.13;;;666.30;1510.40;;;;;;5013311;28;20101;-63
2022/05/18 08:25:12;;;;;;;4.18;2.40;;;666.10;1510.40;;;;;;5012548;28;20140;-62
2022/05/18 08:27:47;;;;;;;4.40;2.13;;;640.90;1536.00;;;;;;5012759;28;20380;-61
2022/05/18 08:30:15;;;;;;;2.80;1.98;;;615.20;1536.00;;;;;;5012923;28;20042;-63
2022/05/18 08:32:42;;;;;;;2.30;1.73;;;614.70;1561.60;;;;;;5012685;28;20022;-64
2022/05/18 08:35:09;;;;;;;2.53;1.77;;;589.40;1536.00;;;;;;5012591;28;20026;-64
2022/05/18 08:37:43;;;;;;;2.80;1.77;;;589.30;1561.60;;;;;;5012761;28;20030;-63
2022/05/18 08:40:47;;;;;;;3.60;2.53;;;589.40;1612.80;;;;;;5012458;28;20039;-64
2022/05/18 08:43:33;;;;;;;3.13;2.08;;;589.50;1612.80;;;;;;4932278;29;20040;-63
2022/05/18 08:46:01;;;;;;;3.10;1.80;;;589.10;1587.20;;;;;;4932943;29;20550;-63
2022/05/18 08:48:38;;;;;;;5.32;1.80;;;589.30;1561.60;;;;;;4932965;29;20852;-63
2022/05/18 08:51:11;;;;;;;3.20;1.77;;;589.00;1587.20;;;;;;4932962;29;20178;-63
2022/05/18 08:53:49;;;;;;;4.00;1.85;;;564.10;1612.80;;;;;;4932606;29;20039;-64
2022/05/18 08:56:38;;;;;;;6.82;1.83;;;564.10;1638.40;;;;;;4932938;29;20036;-63
2022/05/18 08:59:09;;;;;;;3.65;2.13;;;563.70;1664.00;;;;;;4932722;29;20475;-64
2022/05/18 09:01:46;;;;;;;2.92;1.98;;;563.20;1638.40;;;;;;4932627;29;20032;-64
2022/05/18 09:04:16;;;;;;;3.15;1.80;;;563.60;1664.00;;;;;;4932530;29;20032;-64
2022/05/18 09:06:58;;;;;;;5.72;2.30;;;563.70;1587.20;;;;;;4932732;29;20414;-64
2022/05/18 09:12:23;;;;;;;1.75;1.42;;;563.90;1536.00;;;;;;4932592;29;20075;-64
2022/05/18 09:14:49;;;;;;;2.30;1.90;;;563.80;1536.00;;;;;;4932272;29;20039;-64
2022/05/18 09:17:28;;;;;;;2.83;1.60;;;588.80;1536.00;;;;;;4932545;29;20023;-63
2022/05/18 09:19:57;;;;;;;5.40;2.08;;;564.10;1536.00;;;;;;4961950;28;20042;-64
2022/05/18 09:22:29;;;;;;;5.28;2.05;;;563.70;1561.60;;;;;;5011713;28;20029;-64
2022/05/18 09:25:17;;;;;;;3.20;2.22;;;564.00;1536.00;;;;;;4993489;28;20046;-64
2022/05/18 09:28:23;;;;;;;5.45;2.42;;;563.90;1484.80;;;;;;5012073;28;20435;-64
2022/05/18 09:31:00;;;;;;;2.28;1.70;;;564.00;1510.40;;;;;;5011401;28;20042;-64
2022/05/18 09:33:56;;;;;;;3.35;1.80;;;589.10;1510.40;;;;;;5011489;28;20026;-63
2022/05/18 09:36:36;;;;;;;2.03;1.67;;;564.10;1484.80;;;;;;5011366;28;20465;-64
2022/05/18 09:39:08;;;;;;;2.75;1.70;;;589.20;1459.20;;;;;;5011233;28;20030;-64
2022/05/18 09:41:44;;;;;;;2.43;1.80;;;614.90;1459.20;;;;;;5011408;28;20400;-65
2022/05/18 09:44:15;;;;;;;2.10;1.55;;;640.00;1459.20;;;;;;5011232;28;20745;-65
2022/05/18 09:46:42;;;;;;;2.63;1.67;;;614.70;1408.00;;;;;;5014021;28;20029;-65
2022/05/18 09:49:35;;;;;;;4.43;1.83;;;589.50;1459.20;;;;;;5011161;28;20121;-65
2022/05/18 09:52:03;;;;;;;2.38;1.73;;;589.50;1433.60;;;;;;5011168;28;20037;-64
2022/05/18 09:54:31;;;;;;;2.97;1.70;;;564.10;1484.80;;;;;;5010730;28;20022;-64
2022/05/18 09:57:22;;;;;;;4.18;2.50;;;588.90;1484.80;;;;;;5011198;28;20033;-65
2022/05/18 10:00:13;;;;;;;2.22;1.45;;;563.60;1510.40;;;;;;5010974;28;20026;-65
2022/05/18 10:08:27;;;;;;;4.88;1.77;;;564.10;1536.00;;;;;;4912704;29;20083;-65
2022/05/18 10:11:18;;;;;;;4.25;1.80;;;588.80;1536.00;;;;;;4912277;29;20475;-64
2022/05/18 10:14:06;;;;;;;2.63;1.70;;;563.80;1484.80;;;;;;4856388;29;20182;-63
2022/05/18 10:17:06;;;;;;;2.88;1.65;;;563.70;1510.40;;;;;;4856155;29;20033;-64
2022/05/18 10:19:51;;;;;;;3.08;1.52;;;564.10;1510.40;;;;;;4855907;29;20528;-65
2022/05/18 10:22:26;;;;;;;3.53;1.88;;;563.50;1510.40;;;;;;4855965;29;20052;-65
2022/05/18 10:25:11;;;;;;;3.42;1.50;;;563.90;1510.40;;;;;;4855555;29;20053;-64
2022/05/18 10:27:44;;;;;;;2.45;1.90;;;564.00;1484.80;;;;;;4856033;29;20215;-64
2022/05/18 10:30:15;;;;;;;2.28;1.60;;;564.10;1484.80;;;;;;4855752;29;20077;-63
2022/05/18 10:33:07;;;;;;;2.17;1.48;;;564.10;1484.80;;;;;;4855674;29;20038;-64
2022/05/18 10:35:49;;;;;;;3.47;1.75;;;588.80;1459.20;;;;;;4855896;29;20034;-64
2022/05/18 10:38:27;;;;;;;2.92;1.70;;;564.10;1433.60;;;;;;4855903;29;20036;-64
2022/05/18 10:41:17;;;;;;;2.15;1.50;;;588.80;1484.80;;;;;;4930810;29;20028;-64
2022/05/18 10:44:04;;;;;;;2.72;1.65;;;563.70;1408.00;;;;;;4874329;29;20033;-65
2022/05/18 10:46:32;;;;;;;2.13;1.35;;;588.90;1510.40;;;;;;4874006;29;20033;-65
2022/05/18 10:49:00;;;;;;;3.40;1.60;;;563.90;1459.20;;;;;;4873635;29;20096;-65
2022/05/18 10:51:51;;;;;;;3.35;1.55;;;564.10;1433.60;;;;;;4904390;29;20502;-64
2022/05/18 10:54:25;;;;;;;2.00;1.40;;;564.10;1408.00;;;;;;4909758;29;20714;-64
2022/05/18 10:56:52;;;;;;;2.58;1.88;;;563.90;1510.40;;;;;;4911516;29;20576;-65
2022/05/18 10:59:49;;;;;;;2.67;1.40;;;563.70;1433.60;;;;;;4911549;29;20036;-66
2022/05/18 11:02:29;;;;;;;1.85;1.40;;;563.80;1408.00;;;;;;4911775;29;20402;-63
2022/05/18 11:04:58;;;;;;;2.28;1.63;;;564.10;1433.60;;;;;;4911144;29;20039;-64
2022/05/18 11:07:28;;;;;;;2.90;1.70;;;588.90;1510.40;;;;;;4911503;29;20040;-65
2022/05/18 11:09:54;;;;;;;2.80;1.70;;;563.30;1408.00;;;;;;4911387;29;20487;-65
2022/05/18 11:12:37;;;;;;;3.22;1.52;;;563.60;1433.60;;;;;;4911263;29;20471;-64
2022/05/18 11:15:14;;;;;;;2.58;1.73;;;563.60;1433.60;;;;;;4911538;29;20123;-64
2022/05/18 11:17:52;;;;;;;2.60;1.90;;;563.80;1433.60;;;;;;4911331;29;20400;-65
2022/05/18 11:20:44;;;;;;;3.45;1.77;;;563.90;1433.60;;;;;;4937949;28;20038;-66
2022/05/18 11:23:43;;;;;;;3.65;1.90;;;563.90;1459.20;;;;;;4989861;28;20039;-64
2022/05/18 11:26:21;;;;;;;2.38;1.55;;;563.60;1459.20;;;;;;4989752;28;20054;-66
2022/05/18 11:29:04;;;;;;;5.03;1.67;;;563.80;1433.60;;;;;;5019805;28;20121;-63
2022/05/18 11:31:45;;;;;;;4.15;1.63;;;563.70;1408.00;;;;;;5018058;28;20066;-65
2022/05/18 11:34:36;;;;;;;3.00;1.88;;;563.30;1408.00;;;;;;5022753;28;20029;-65
2022/05/18 11:37:05;;;;;;;5.63;2.03;;;563.40;1459.20;;;;;;5020387;28;20053;-64
2022/05/18 11:39:55;;;;;;;2.85;1.90;;;563.50;1433.60;;;;;;5018598;28;20030;-64
2022/05/18 11:42:46;;;;;;;4.28;1.50;;;538.50;1356.80;;;;;;5019350;28;20033;-64
2022/05/18 11:45:32;;;;;;;3.47;1.83;;;563.90;1408.00;;;;;;4919982;29;20048;-63
2022/05/18 11:48:19;;;;;;;2.60;1.55;;;538.50;1356.80;;;;;;4920409;29;20032;-65
2022/05/18 11:50:57;;;;;;;4.47;2.15;;;563.90;1408.00;;;;;;4921208;29;20036;-64
2022/05/18 11:53:29;;;;;;;3.40;1.85;;;589.00;1356.80;;;;;;4921283;29;20038;-64
2022/05/18 11:56:06;;;;;;;4.63;2.03;;;564.10;1356.80;;;;;;4920417;29;20119;-63
2022/05/18 11:59:09;;;;;;;4.93;1.60;;;564.00;1356.80;;;;;;4911092;29;20043;-64
2022/05/18 12:01:56;;;;;;;2.20;1.50;;;564.10;1356.80;;;;;;4919756;29;20047;-65
2022/05/18 12:04:30;;;;;;;3.60;1.42;;;564.10;1382.40;;;;;;4920865;29;20024;-65
2022/05/18 12:07:10;;;;;;;2.67;1.55;;;564.10;1382.40;;;;;;4913381;29;20107;-64
2022/05/18 12:09:53;;;;;;;4.05;1.50;;;564.00;1356.80;;;;;;4910920;29;20075;-64
2022/05/18 12:12:29;;;;;;;6.40;1.63;;;588.80;1382.40;;;;;;4910956;29;20032;-65
2022/05/18 12:15:09;;;;;;;2.58;1.75;;;588.90;1356.80;;;;;;4910897;29;20087;-65
2022/05/18 12:18:00;;;;;;;3.70;1.98;;;588.80;1356.80;;;;;;4912253;29;20032;-65
2022/05/18 12:20:36;;;;;;;7.00;1.85;;;563.90;1382.40;;;;;;4914410;29;20074;-64
2022/05/18 12:23:06;;;;;;;4.50;2.00;;;563.30;1408.00;;;;;;4979932;28;20046;-65
2022/05/18 12:25:34;;;;;;;2.55;1.55;;;538.40;1356.80;;;;;;4992682;28;20061;-64
2022/05/18 12:28:02;;;;;;;2.75;1.80;;;538.10;1356.80;;;;;;4992953;28;20025;-64
2022/05/18 12:30:33;;;;;;;3.35;2.00;;;538.00;1382.40;;;;;;4992798;28;20502;-64
2022/05/18 12:33:01;;;;;;;2.20;1.38;;;538.20;1356.80;;;;;;4993071;28;20034;-63
2022/05/18 12:35:54;;;;;;;2.05;1.70;;;537.90;1356.80;;;;;;4993025;28;20069;-64
2022/05/18 12:38:54;;;;;;;2.20;1.70;;;537.90;1356.80;;;;;;4992835;28;20026;-65
2022/05/18 12:41:26;;;;;;;3.35;1.90;;;537.80;1382.40;;;;;;4932719;29;20031;-64
2022/05/18 12:44:08;;;;;;;2.17;1.42;;;538.20;1356.80;;;;;;4933526;29;20031;-64
2022/05/18 12:46:42;;;;;;;2.42;1.67;;;537.80;1356.80;;;;;;4913840;29;20081;-64
2022/05/18 12:49:18;;;;;;;9.02;1.83;;;512.90;1382.40;;;;;;4921545;29;20063;-64
2022/05/18 12:51:54;;;;;;;2.83;1.33;;;512.90;1382.40;;;;;;4933866;29;20044;-63
2022/05/18 12:54:47;;;;;;;2.20;1.13;;;512.70;1356.80;;;;;;4932497;29;20112;-64